createdAt,value
2023-05-05T00:01:11.822Z,9.15
2023-05-05T00:03:38.755Z,8.20
2023-05-05T00:06:05.708Z,6.55
2023-05-05T00:08:32.425Z,7.45
2023-05-05T00:10:59.020Z,8.38
2023-05-05T00:13:25.706Z,6.43
2023-05-05T00:15:53.711Z,6.95
2023-05-05T00:18:21.069Z,8.85
2023-05-05T00:20:48.495Z,7.28
2023-05-05T00:23:16.429Z,11.15
2023-05-05T00:25:43.312Z,8.90
2023-05-05T00:28:09.894Z,8.05
2023-05-05T00:30:37.510Z,8.02
2023-05-05T00:33:04.336Z,9.50
2023-05-05T00:35:30.880Z,7.43
2023-05-05T00:37:57.497Z,9.40
2023-05-05T00:40:25.143Z,10.15
2023-05-05T00:42:52.130Z,8.48
2023-05-05T00:45:20.068Z,8.52
2023-05-05T00:47:50.284Z,8.73
2023-05-05T00:50:30.882Z,7.65
2023-05-05T00:53:06.443Z,7.93
2023-05-05T00:55:34.888Z,7.63
2023-05-05T00:58:05.625Z,10.70
2023-05-05T01:00:32.366Z,8.35
2023-05-05T01:02:59.553Z,8.05
2023-05-05T01:05:32.987Z,7.60
2023-05-05T01:08:11.425Z,7.53
2023-05-05T01:10:42.434Z,6.72
2023-05-05T01:13:42.941Z,8.65
2023-05-05T01:16:24.124Z,8.82
2023-05-05T01:21:43.275Z,6.95
2023-05-05T01:24:37.349Z,7.97
2023-05-05T01:27:38.328Z,10.45
2023-05-05T01:30:43.239Z,8.05
2023-05-05T01:33:14.395Z,10.52
2023-05-05T01:35:47.257Z,12.40
2023-05-05T01:38:26.058Z,9.95
2023-05-05T01:40:59.640Z,9.68
2023-05-05T01:43:29.610Z,9.27
2023-05-05T01:45:59.380Z,8.68
2023-05-05T01:48:26.373Z,11.40
2023-05-05T01:50:53.980Z,10.00
2023-05-05T01:53:23.360Z,9.45
2023-05-05T01:55:52.236Z,8.40
2023-05-05T02:00:48.963Z,10.75
2023-05-05T02:03:17.353Z,8.15
2023-05-05T02:05:47.446Z,8.00
2023-05-05T02:08:15.099Z,8.70
2023-05-05T02:10:43.001Z,7.88
2023-05-05T02:13:15.608Z,8.55
2023-05-05T02:15:44.084Z,7.72
2023-05-05T02:18:11.385Z,10.20
2023-05-05T02:20:39.777Z,8.10
2023-05-05T02:23:07.984Z,8.43
2023-05-05T02:25:43.564Z,7.13
2023-05-05T02:28:15.338Z,7.95
2023-05-05T02:30:42.596Z,6.97
2023-05-05T02:33:11.648Z,10.88
2023-05-05T02:35:40.883Z,6.32
2023-05-05T02:38:17.227Z,5.88
2023-05-05T02:40:46.140Z,6.53
2023-05-05T02:45:42.243Z,5.25
2023-05-05T02:48:10.615Z,6.03
2023-05-05T02:50:37.132Z,5.55
2023-05-05T02:53:03.916Z,7.55
2023-05-05T02:55:43.844Z,5.43
2023-05-05T02:58:48.611Z,6.80
2023-05-05T03:01:29.609Z,7.57
2023-05-05T03:04:05.791Z,5.85
2023-05-05T03:06:41.159Z,6.07
2023-05-05T03:09:19.822Z,5.55
2023-05-05T03:12:10.027Z,6.65
2023-05-05T03:14:41.870Z,5.10
2023-05-05T03:17:12.569Z,5.22
2023-05-05T03:19:42.838Z,6.82
2023-05-05T03:22:09.945Z,6.40
2023-05-05T03:24:36.392Z,7.32
2023-05-05T03:27:03.176Z,6.43
2023-05-05T03:29:30.239Z,5.93
2023-05-05T03:31:56.819Z,5.68
2023-05-05T03:34:23.505Z,5.60
2023-05-05T03:36:50.036Z,5.10
2023-05-05T03:39:17.089Z,4.85
2023-05-05T03:41:43.567Z,5.10
2023-05-05T03:44:10.496Z,4.85
2023-05-05T03:46:36.996Z,5.07
2023-05-05T03:49:03.500Z,5.05
2023-05-05T03:51:30.012Z,5.20
2023-05-05T03:53:56.506Z,6.63
2023-05-05T03:56:22.984Z,5.25
2023-05-05T03:58:49.464Z,6.50
2023-05-05T04:01:18.005Z,6.78
2023-05-05T04:03:44.504Z,5.90
2023-05-05T04:06:11.457Z,6.28
2023-05-05T04:08:37.931Z,5.70
2023-05-05T04:11:04.513Z,5.32
2023-05-05T04:13:31.081Z,7.68
2023-05-05T04:15:57.654Z,5.75
2023-05-05T04:18:24.225Z,7.60
2023-05-05T04:20:50.779Z,7.57
2023-05-05T04:23:17.307Z,6.90
2023-05-05T04:25:43.856Z,6.03
2023-05-05T04:28:10.361Z,7.55
2023-05-05T04:30:36.871Z,5.50
2023-05-05T04:33:03.583Z,7.10
2023-05-05T04:35:30.093Z,8.27
2023-05-05T04:37:56.611Z,6.50
2023-05-05T04:40:23.167Z,6.40
2023-05-05T04:42:50.806Z,5.53
2023-05-05T04:45:17.474Z,7.60
2023-05-05T04:47:44.090Z,7.32
2023-05-05T04:50:14.304Z,5.90
2023-05-05T04:52:40.751Z,6.88
2023-05-05T04:55:09.204Z,6.57
2023-05-05T04:57:35.746Z,8.05
2023-05-05T05:00:04.835Z,6.75
2023-05-05T05:02:31.607Z,8.82
2023-05-05T05:04:58.283Z,7.82
2023-05-05T05:07:24.800Z,6.32
2023-05-05T05:09:51.532Z,6.75
2023-05-05T05:12:18.025Z,6.15
2023-05-05T05:14:44.563Z,8.45
2023-05-05T05:17:11.057Z,7.07
2023-05-05T05:19:37.652Z,6.35
2023-05-05T05:22:04.387Z,7.60
2023-05-05T05:24:30.953Z,8.98
2023-05-05T05:26:57.480Z,8.00
2023-05-05T05:29:24.099Z,7.63
2023-05-05T05:31:50.609Z,10.82
2023-05-05T05:34:17.139Z,9.18
2023-05-05T05:36:43.772Z,6.35
2023-05-05T05:39:10.294Z,9.07
2023-05-05T05:41:36.743Z,9.32
2023-05-05T05:44:03.502Z,8.70
2023-05-05T05:46:30.057Z,12.43
2023-05-05T05:48:57.314Z,12.13
2023-05-05T05:51:23.837Z,10.10
2023-05-05T05:53:51.809Z,10.65
2023-05-05T05:56:18.397Z,11.18
2023-05-05T05:58:45.302Z,12.77
2023-05-05T06:01:12.075Z,10.98
2023-05-05T06:03:38.676Z,12.15
2023-05-05T06:06:05.271Z,10.07
2023-05-05T06:08:31.913Z,10.85
2023-05-05T06:11:00.601Z,11.27
2023-05-05T06:13:27.263Z,10.88
2023-05-05T06:15:53.770Z,11.40
2023-05-05T06:18:20.381Z,13.20
2023-05-05T06:20:49.844Z,9.80
2023-05-05T06:23:16.693Z,9.30
2023-05-05T06:25:43.273Z,8.80
2023-05-05T06:28:09.760Z,8.13
2023-05-05T06:30:36.397Z,9.00
2023-05-05T06:33:03.011Z,7.35
2023-05-05T06:35:30.354Z,7.22
2023-05-05T06:37:56.851Z,8.18
2023-05-05T06:40:25.618Z,6.80
2023-05-05T06:42:52.298Z,6.70
2023-05-05T06:45:18.835Z,8.45
2023-05-05T06:47:45.352Z,9.95
2023-05-05T06:50:11.973Z,9.43
2023-05-05T06:52:38.439Z,6.97
2023-05-05T06:55:05.402Z,9.95
2023-05-05T06:57:31.953Z,10.73
2023-05-05T06:59:58.548Z,7.55
2023-05-05T07:02:26.652Z,8.40
2023-05-05T07:04:55.364Z,8.25
2023-05-05T07:07:22.075Z,9.02
2023-05-05T07:09:48.569Z,7.10
2023-05-05T07:12:15.126Z,7.10
2023-05-05T07:14:41.654Z,8.32
2023-05-05T07:17:08.165Z,6.55
2023-05-05T07:19:34.690Z,7.82
2023-05-05T07:22:01.167Z,11.68
2023-05-05T07:24:27.688Z,5.88
2023-05-05T07:26:54.257Z,6.97
2023-05-05T07:29:20.879Z,6.30
2023-05-05T07:31:47.399Z,7.43
2023-05-05T07:34:14.035Z,7.97
2023-05-05T07:36:40.800Z,9.02
2023-05-05T07:39:07.468Z,7.07
2023-05-05T07:41:33.974Z,5.75
2023-05-05T07:44:01.217Z,6.60
2023-05-05T07:46:27.867Z,7.88
2023-05-05T07:48:54.520Z,5.68
2023-05-05T07:51:21.546Z,12.35
2023-05-05T07:53:48.112Z,5.63
2023-05-05T07:56:14.637Z,5.90
2023-05-05T07:58:42.229Z,8.15
2023-05-05T08:01:11.162Z,8.48
2023-05-05T08:03:37.885Z,5.90
2023-05-05T08:06:10.595Z,7.25
2023-05-05T08:08:37.755Z,7.38
2023-05-05T08:11:06.370Z,6.13
2023-05-05T08:13:33.078Z,5.32
2023-05-05T08:15:59.641Z,4.57
2023-05-05T08:18:26.566Z,5.95
2023-05-05T08:20:54.577Z,4.90
2023-05-05T08:23:21.659Z,4.55
2023-05-05T08:25:48.224Z,6.55
2023-05-05T08:28:14.753Z,4.20
2023-05-05T08:30:41.757Z,5.32
2023-05-05T08:33:08.360Z,3.70
2023-05-05T08:35:34.868Z,3.92
2023-05-05T08:38:01.332Z,4.47
2023-05-05T08:40:36.450Z,4.72
2023-05-05T08:43:03.762Z,6.40
2023-05-05T08:45:30.363Z,5.35
2023-05-05T08:47:58.014Z,4.00
2023-05-05T08:50:27.993Z,3.72
2023-05-05T08:53:03.496Z,4.25
2023-05-05T08:55:34.926Z,3.30
2023-05-05T08:58:05.757Z,4.82
2023-05-05T09:00:47.166Z,6.25
2023-05-05T09:03:14.686Z,2.63
2023-05-05T09:05:42.985Z,2.42
2023-05-05T09:08:13.017Z,4.32
2023-05-05T09:10:44.664Z,3.88
2023-05-05T09:15:51.792Z,3.55
2023-05-05T09:18:18.291Z,3.65
2023-05-05T09:20:45.050Z,4.57
2023-05-05T09:23:17.329Z,5.38
2023-05-05T09:25:46.831Z,6.82
2023-05-05T09:28:17.820Z,4.32
2023-05-05T09:30:47.480Z,4.03
2023-05-05T09:33:14.381Z,3.95
2023-05-05T09:35:51.386Z,5.43
2023-05-05T09:38:19.238Z,3.05
2023-05-05T09:40:47.747Z,3.42
2023-05-05T09:43:15.230Z,3.90
2023-05-05T09:45:41.921Z,4.10
2023-05-05T09:48:22.858Z,4.47
2023-05-05T09:50:49.597Z,5.28
2023-05-05T09:53:16.195Z,4.72
2023-05-05T09:56:00.907Z,4.55
2023-05-05T09:58:29.162Z,6.47
2023-05-05T10:00:57.471Z,5.32
2023-05-05T10:03:25.206Z,6.07
2023-05-05T10:05:56.943Z,4.85
2023-05-05T10:08:26.405Z,4.30
2023-05-05T10:11:01.071Z,7.63
2023-05-05T10:15:56.456Z,5.25
2023-05-05T10:21:02.371Z,1.75
2023-05-05T10:23:52.893Z,5.47
2023-05-05T10:26:22.353Z,7.43
2023-05-05T10:28:55.692Z,35.38
2023-05-05T10:31:46.342Z,3.35
2023-05-05T10:34:58.599Z,3.72
2023-05-05T10:37:26.126Z,1.23
2023-05-05T10:39:55.601Z,2.58
2023-05-05T10:42:23.571Z,2.95
2023-05-05T10:44:51.657Z,1.38
2023-05-05T10:47:20.275Z,2.25
2023-05-05T10:50:06.559Z,3.00
2023-05-05T10:52:55.665Z,4.35
2023-05-05T10:55:36.432Z,3.20
2023-05-05T10:58:02.992Z,1.20
2023-05-05T11:00:38.713Z,3.05
2023-05-05T11:03:17.495Z,2.83
2023-05-05T11:06:08.298Z,2.25
2023-05-05T11:08:39.207Z,2.35
2023-05-05T11:11:06.359Z,2.50
2023-05-05T11:13:32.912Z,3.10
2023-05-05T11:16:00.825Z,2.88
2023-05-05T11:18:31.461Z,4.32
2023-05-05T11:20:57.882Z,4.70
2023-05-05T11:23:24.942Z,2.00
2023-05-05T11:25:58.100Z,2.42
2023-05-05T11:28:31.085Z,2.83
2023-05-05T11:30:58.539Z,4.93
2023-05-05T11:33:29.198Z,2.17
2023-05-05T11:36:06.480Z,4.85
2023-05-05T11:38:39.511Z,3.85
2023-05-05T11:41:12.181Z,3.38
2023-05-05T11:43:39.659Z,5.18
2023-05-05T11:46:12.795Z,3.58
2023-05-05T11:48:50.175Z,3.92
2023-05-05T11:51:17.550Z,4.75
2023-05-05T11:53:46.036Z,4.55
2023-05-05T11:56:18.882Z,5.95
2023-05-05T11:58:48.880Z,4.05
2023-05-05T12:01:15.919Z,4.45
2023-05-05T12:03:43.424Z,3.72
2023-05-05T12:06:10.161Z,3.08
2023-05-05T12:08:40.549Z,7.18
2023-05-05T12:11:09.925Z,4.45
2023-05-05T12:13:36.547Z,5.13
2023-05-05T12:16:13.469Z,4.45
2023-05-05T12:18:40.926Z,8.52
2023-05-05T12:21:15.881Z,3.63
2023-05-05T12:23:42.476Z,4.05
2023-05-05T12:26:24.287Z,2.28
2023-05-05T12:28:50.769Z,5.18
2023-05-05T12:31:17.252Z,3.85
2023-05-05T12:33:44.276Z,4.75
2023-05-05T12:36:12.154Z,4.60
2023-05-05T12:38:39.022Z,5.20
2023-05-05T12:41:05.636Z,4.70
2023-05-05T12:43:33.333Z,3.35
2023-05-05T12:46:11.792Z,3.90
2023-05-05T12:48:40.665Z,4.13
2023-05-05T12:51:15.065Z,3.53
2023-05-05T12:53:41.896Z,4.72
2023-05-05T12:56:30.422Z,4.47
2023-05-05T12:58:57.419Z,5.00
2023-05-05T13:01:23.957Z,4.35
2023-05-05T13:04:10.916Z,4.75
2023-05-05T13:06:41.701Z,6.25
2023-05-05T13:09:10.064Z,5.57
2023-05-05T13:11:37.759Z,2.92
2023-05-05T13:14:04.940Z,5.22
2023-05-05T13:16:31.509Z,3.22
2023-05-05T13:18:58.093Z,5.95
2023-05-05T13:21:24.755Z,4.63
2023-05-05T13:23:51.201Z,4.88
2023-05-05T13:26:17.637Z,5.45
2023-05-05T13:28:44.321Z,3.40
2023-05-05T13:31:10.863Z,4.47
2023-05-05T13:33:37.557Z,4.72
2023-05-05T13:36:04.384Z,4.00
2023-05-05T13:38:33.017Z,3.67
2023-05-05T13:41:00.178Z,4.47
2023-05-05T13:43:26.679Z,3.75
2023-05-05T13:45:53.524Z,4.28
2023-05-05T13:48:20.807Z,6.03
2023-05-05T13:50:47.356Z,3.90
2023-05-05T13:53:14.666Z,5.35
2023-05-05T13:55:44.602Z,5.15
2023-05-05T13:58:11.102Z,2.25
2023-05-05T14:00:37.837Z,4.60
2023-05-05T14:03:04.622Z,2.55
2023-05-05T14:05:31.341Z,3.50
2023-05-05T14:07:57.832Z,3.38
2023-05-05T14:10:26.139Z,4.68
2023-05-05T14:12:52.907Z,3.65
2023-05-05T14:15:19.574Z,3.45
2023-05-05T14:17:46.178Z,2.28
2023-05-05T14:20:12.823Z,2.55
2023-05-05T14:22:39.421Z,2.22
2023-05-05T14:25:06.574Z,2.15
2023-05-05T14:27:33.261Z,3.28
2023-05-05T14:29:59.793Z,1.40
2023-05-05T14:32:26.338Z,2.20
2023-05-05T14:34:52.836Z,1.90
2023-05-05T14:37:19.481Z,1.83
2023-05-05T14:39:45.920Z,3.30
2023-05-05T14:42:12.594Z,3.63
2023-05-05T14:44:39.244Z,2.83
2023-05-05T14:47:05.896Z,1.85
2023-05-05T14:49:32.515Z,1.52
2023-05-05T14:51:59.028Z,2.40
2023-05-05T14:54:28.782Z,2.85
2023-05-05T14:56:56.181Z,2.63
2023-05-05T14:59:22.745Z,3.20
2023-05-05T15:01:49.652Z,2.03
2023-05-05T15:04:16.244Z,2.90
2023-05-05T15:06:42.772Z,2.45
2023-05-05T15:09:09.233Z,2.15
2023-05-05T15:11:35.738Z,5.00
2023-05-05T15:14:02.277Z,3.70
2023-05-05T15:16:28.884Z,3.53
2023-05-05T15:18:55.514Z,2.17
2023-05-05T15:21:22.070Z,4.25
2023-05-05T15:23:48.541Z,2.40
2023-05-05T15:26:16.023Z,2.35
2023-05-05T15:28:42.781Z,2.08
2023-05-05T15:31:09.348Z,1.98
2023-05-05T15:33:36.019Z,2.03
2023-05-05T15:36:02.530Z,2.22
2023-05-05T15:38:29.685Z,3.22
2023-05-05T15:40:56.214Z,2.08
2023-05-05T15:43:22.849Z,2.75
2023-05-05T15:45:49.348Z,1.95
2023-05-05T15:48:15.896Z,4.35
2023-05-05T15:50:42.449Z,3.30
2023-05-05T15:53:08.929Z,2.75
2023-05-05T15:55:35.833Z,3.75
2023-05-05T15:58:02.362Z,3.05
2023-05-05T16:00:28.966Z,4.88
2023-05-05T16:02:56.091Z,2.47
2023-05-05T16:05:23.097Z,2.00
2023-05-05T16:07:49.894Z,4.20
2023-05-05T16:10:17.711Z,2.80
2023-05-05T16:12:44.240Z,2.90
2023-05-05T16:15:11.387Z,2.10
2023-05-05T16:17:38.124Z,3.15
2023-05-05T16:20:05.148Z,5.30
2023-05-05T16:22:31.594Z,2.28
2023-05-05T16:24:58.062Z,2.50
2023-05-05T16:27:24.707Z,2.53
2023-05-05T16:29:51.437Z,2.10
2023-05-05T16:32:17.877Z,1.67
2023-05-05T16:34:44.431Z,1.88
2023-05-05T16:37:11.080Z,2.03
2023-05-05T16:39:40.278Z,1.92
2023-05-05T16:42:07.044Z,1.63
2023-05-05T16:44:33.634Z,2.10
2023-05-05T16:47:00.119Z,1.77
2023-05-05T16:49:26.600Z,1.35
2023-05-05T16:51:53.514Z,2.25
2023-05-05T16:54:20.034Z,3.20
2023-05-05T16:56:46.530Z,4.50
2023-05-05T16:59:15.191Z,1.42
2023-05-05T17:04:11.070Z,1.77
2023-05-05T17:06:37.698Z,1.65
2023-05-05T17:09:06.168Z,2.75
2023-05-05T17:11:32.737Z,2.53
2023-05-05T17:13:59.216Z,1.80
2023-05-05T17:16:26.098Z,3.20
2023-05-05T17:18:54.033Z,2.05
2023-05-05T17:21:20.546Z,0.90
2023-05-05T17:23:47.017Z,1.73
2023-05-05T17:26:13.749Z,1.95
2023-05-05T17:28:40.417Z,1.40
2023-05-05T17:31:07.005Z,3.35
2023-05-05T17:33:33.551Z,2.00
2023-05-05T17:36:00.222Z,3.35
2023-05-05T17:38:26.703Z,1.02
2023-05-05T17:40:53.165Z,1.33
2023-05-05T17:43:19.696Z,1.55
2023-05-05T17:45:46.751Z,1.20
2023-05-05T17:48:13.358Z,4.07
2023-05-05T17:50:41.378Z,1.58
2023-05-05T17:53:10.732Z,1.50
2023-05-05T17:55:37.354Z,3.38
2023-05-05T17:58:03.832Z,1.52
2023-05-05T18:00:30.542Z,1.23
2023-05-05T18:02:57.086Z,2.17
2023-05-05T18:05:23.618Z,1.35
2023-05-05T18:07:50.137Z,1.25
2023-05-05T18:10:16.813Z,1.77
2023-05-05T18:12:43.489Z,1.73
2023-05-05T18:15:10.737Z,2.15
2023-05-05T18:17:37.501Z,1.17
2023-05-05T18:20:06.758Z,2.72
2023-05-05T18:22:34.300Z,1.60
2023-05-05T18:25:01.122Z,1.35
2023-05-05T18:27:28.436Z,1.45
2023-05-05T18:29:55.380Z,2.53
2023-05-05T18:32:21.904Z,2.00
2023-05-05T18:34:48.420Z,3.60
2023-05-05T18:37:15.182Z,5.70
2023-05-05T18:39:43.903Z,5.10
2023-05-05T18:42:12.705Z,3.95
2023-05-05T18:44:39.232Z,3.53
2023-05-05T18:47:05.788Z,3.13
2023-05-05T18:49:32.272Z,4.32
2023-05-05T18:51:59.126Z,2.88
2023-05-05T18:54:25.772Z,2.35
2023-05-05T18:56:52.593Z,2.50
2023-05-05T18:59:19.077Z,2.53
2023-05-05T19:01:45.612Z,2.83
2023-05-05T19:04:26.681Z,3.00
2023-05-05T19:06:56.396Z,2.72
2023-05-05T19:09:22.860Z,2.88
2023-05-05T19:11:49.487Z,2.85
2023-05-05T19:14:16.772Z,3.20
2023-05-05T19:16:43.394Z,4.32
2023-05-05T19:19:11.110Z,6.25
2023-05-05T19:21:37.838Z,9.25
2023-05-05T19:24:04.477Z,15.32
2023-05-05T19:26:31.789Z,13.75
2023-05-05T19:28:58.268Z,11.38
2023-05-05T19:31:27.739Z,8.93
2023-05-05T19:34:02.771Z,8.65
2023-05-05T19:36:32.727Z,8.40
2023-05-05T19:39:04.123Z,7.43
2023-05-05T19:41:31.321Z,5.18
2023-05-05T19:43:57.912Z,6.53
2023-05-05T19:46:27.355Z,6.38
2023-05-05T19:48:54.028Z,5.78
2023-05-05T19:51:20.549Z,5.60
2023-05-05T19:53:47.219Z,4.45
2023-05-05T19:56:14.112Z,3.70
2023-05-05T19:59:00.788Z,3.80
2023-05-05T20:01:29.071Z,4.88
2023-05-05T20:03:56.815Z,4.53
2023-05-05T20:06:23.634Z,4.85
2023-05-05T20:08:50.533Z,3.92
2023-05-05T20:11:17.635Z,3.20
2023-05-05T20:13:44.706Z,3.13
2023-05-05T20:16:11.934Z,3.60
2023-05-05T20:18:38.804Z,3.13
2023-05-05T20:21:05.342Z,6.05
2023-05-05T20:23:31.878Z,4.13
2023-05-05T20:25:58.345Z,3.15
2023-05-05T20:28:24.963Z,4.25
2023-05-05T20:30:51.651Z,2.95
2023-05-05T20:33:18.281Z,4.05
2023-05-05T20:35:44.818Z,3.08
2023-05-05T20:38:11.510Z,4.15
2023-05-05T20:40:38.053Z,3.55
2023-05-05T20:43:04.709Z,3.45
2023-05-05T20:45:33.922Z,3.38
2023-05-05T20:48:01.417Z,3.40
2023-05-05T20:50:28.000Z,6.10
2023-05-05T20:52:54.547Z,3.33
2023-05-05T20:55:21.269Z,3.58
2023-05-05T20:57:47.835Z,4.72
2023-05-05T21:00:14.558Z,4.38
2023-05-05T21:02:41.662Z,3.88
2023-05-05T21:05:08.709Z,3.65
2023-05-05T21:07:35.392Z,4.22
2023-05-05T21:10:03.674Z,4.10
2023-05-05T21:12:30.694Z,4.03
2023-05-05T21:14:58.911Z,3.28
2023-05-05T21:17:26.796Z,3.70
2023-05-05T21:19:54.279Z,3.65
2023-05-05T21:22:21.473Z,3.70
2023-05-05T21:24:48.240Z,4.53
2023-05-05T21:27:15.201Z,4.40
2023-05-05T21:29:43.516Z,5.05
2023-05-05T21:32:11.746Z,3.75
2023-05-05T21:34:39.446Z,4.28
2023-05-05T21:37:06.488Z,4.15
2023-05-05T21:39:33.281Z,4.65
2023-05-05T21:42:00.930Z,4.75
2023-05-05T21:44:28.281Z,5.07
2023-05-05T21:46:55.620Z,5.22
2023-05-05T21:49:22.337Z,6.18
2023-05-05T21:51:49.053Z,6.82
2023-05-05T21:54:16.153Z,5.63
2023-05-05T21:56:42.692Z,5.45
2023-05-05T21:59:11.373Z,4.22
2023-05-05T22:01:37.907Z,4.50
2023-05-05T22:04:04.563Z,4.88
2023-05-05T22:06:32.444Z,7.05
2023-05-05T22:08:58.948Z,5.25
2023-05-05T22:11:25.592Z,5.18
2023-05-05T22:13:52.376Z,6.32
2023-05-05T22:16:19.087Z,4.43
2023-05-05T22:18:46.104Z,5.72
2023-05-05T22:21:12.715Z,4.72
2023-05-05T22:23:41.405Z,5.75
2023-05-05T22:26:09.138Z,7.55
2023-05-05T22:28:36.195Z,6.13
2023-05-05T22:31:02.860Z,6.00
2023-05-05T22:33:29.446Z,5.45
2023-05-05T22:35:56.404Z,6.28
2023-05-05T22:38:22.969Z,5.18
2023-05-05T22:40:49.626Z,6.70
2023-05-05T22:43:16.272Z,7.78
2023-05-05T22:45:43.684Z,5.57
2023-05-05T22:48:10.346Z,7.40
2023-05-05T22:50:37.711Z,4.22
2023-05-05T22:53:04.266Z,6.18
2023-05-05T22:55:30.876Z,5.35
2023-05-05T22:57:57.417Z,4.25
2023-05-05T23:00:24.378Z,5.88
2023-05-05T23:02:50.998Z,6.72
2023-05-05T23:05:17.535Z,6.03
2023-05-05T23:07:44.020Z,5.40
2023-05-05T23:10:10.816Z,5.43
2023-05-05T23:12:37.369Z,5.13
2023-05-05T23:15:05.082Z,5.55
2023-05-05T23:17:31.648Z,5.30
2023-05-05T23:19:58.214Z,5.85
2023-05-05T23:22:24.744Z,5.65
2023-05-05T23:24:51.377Z,7.57
2023-05-05T23:27:17.872Z,5.82
2023-05-05T23:29:44.342Z,6.65
2023-05-05T23:32:11.014Z,7.38
2023-05-05T23:34:37.481Z,5.30
2023-05-05T23:37:06.045Z,7.70
2023-05-05T23:39:35.911Z,6.15
2023-05-05T23:42:02.407Z,6.03
2023-05-05T23:44:28.899Z,6.15
2023-05-05T23:46:55.441Z,5.82
2023-05-05T23:49:22.181Z,6.50
2023-05-05T23:51:48.658Z,6.22
2023-05-05T23:54:15.179Z,6.68
2023-05-05T23:56:42.646Z,6.22
2023-05-05T23:59:09.312Z,5.70
